Chennai, India
Current Conditions -  °F | °C
As of 2:40 AM on Tuesday 27 Jan 2015 (Local Time) from VOMM Reporting Station
Haze Haze  
Wind Chill: 73°   Ceiling: Unl
Heat Index: 73°   Visibility: 2.1mi
Dew Point: 70°   Wind: 0mph
Humidity: 88%   Direction: NA
Pressure: 29.91"   Gusts: NA
Location:  13.06°N, 80.25°E
Report Text: VOMM 262140Z 00000KT 3500 BR SCT018 SCT100 23/21 Q1013 BECMG 3000 BR
Loading
Personal Weather Stations






























Interactive Weather Map New forecast layout! Learn more

10-Day Weather Forecast

Advertisements
Track Severe Weather on mobile